createdAt,value
2023-01-02T00:01:17.789Z,20159.34
2023-01-02T00:03:46.057Z,20177.66
2023-01-02T00:06:14.454Z,20149.19
2023-01-02T00:08:42.542Z,20118.69
2023-01-02T00:11:10.732Z,20110.56
2023-01-02T00:13:39.065Z,20084.16
2023-01-02T00:16:09.828Z,20118.69
2023-01-02T00:18:37.983Z,20165.44
2023-01-02T00:21:07.639Z,20120.75
2023-01-02T00:23:36.768Z,20108.53
2023-01-02T00:26:05.418Z,20102.44
2023-01-02T00:28:34.291Z,20084.16
2023-01-02T00:31:09.769Z,20092.28
2023-01-02T00:33:38.488Z,20086.19
2023-01-02T00:36:08.832Z,20102.44
2023-01-02T00:38:38.893Z,20084.16
2023-01-02T00:41:07.720Z,20102.44
2023-01-02T00:43:35.864Z,20155.28
2023-01-02T00:46:10.927Z,20132.94
2023-01-02T00:48:41.238Z,20102.44
2023-01-02T00:51:09.831Z,20155.28
2023-01-02T00:53:38.557Z,20179.69
2023-01-02T00:56:07.684Z,20167.47
2023-01-02T00:58:36.129Z,20151.22
2023-01-02T01:01:04.790Z,20167.47
2023-01-02T01:03:33.053Z,20175.63
2023-01-02T01:06:08.409Z,20134.97
2023-01-02T01:08:37.890Z,20171.56
2023-01-02T01:11:07.808Z,20177.66
2023-01-02T01:13:36.251Z,20187.81
2023-01-02T01:16:10.235Z,20177.66
2023-01-02T01:18:39.438Z,20179.69
2023-01-02T01:21:10.465Z,20187.81
2023-01-02T01:23:39.458Z,20232.53
2023-01-02T01:26:10.923Z,20220.34
2023-01-02T01:28:40.225Z,20216.25
2023-01-02T01:31:11.051Z,20208.13
2023-01-02T01:33:40.213Z,20187.81
2023-01-02T01:36:12.963Z,20169.53
2023-01-02T01:38:42.117Z,20169.53
2023-01-02T01:41:12.337Z,20214.22
2023-01-02T01:43:44.217Z,20216.25
2023-01-02T01:46:24.541Z,20226.44
2023-01-02T01:49:00.983Z,20204.06
2023-01-02T01:51:34.184Z,20204.06
2023-01-02T01:54:12.653Z,20206.09
2023-01-02T01:56:48.296Z,20256.91
2023-01-02T01:59:17.559Z,20218.31
2023-01-02T02:01:48.792Z,20151.22
2023-01-02T02:04:20.654Z,20183.75
2023-01-02T02:06:52.503Z,20173.59
2023-01-02T02:09:31.041Z,20210.16
2023-01-02T02:11:59.361Z,20248.78
2023-01-02T02:14:27.541Z,20195.94
2023-01-02T02:17:06.503Z,20236.59
2023-01-02T02:20:02.409Z,20204.06
2023-01-02T02:23:14.488Z,20171.56
2023-01-02T02:26:12.752Z,20212.19
2023-01-02T02:29:28.512Z,20234.56
2023-01-02T02:32:11.328Z,20218.31
2023-01-02T02:34:50.943Z,20187.81
2023-01-02T02:37:29.139Z,20240.66
2023-01-02T02:40:16.152Z,20220.34
2023-01-02T02:42:57.763Z,20214.22
2023-01-02T02:45:43.203Z,20175.63
2023-01-02T02:48:27.090Z,20183.75
2023-01-02T02:51:03.871Z,20228.47
2023-01-02T02:53:42.581Z,20200.00
2023-01-02T02:56:13.875Z,20191.88
2023-01-02T02:58:44.728Z,20171.56
2023-01-02T03:01:17.727Z,20232.53
2023-01-02T03:03:48.338Z,20183.75
2023-01-02T03:06:44.390Z,20151.22
2023-01-02T03:09:24.342Z,20226.44
2023-01-02T03:12:10.116Z,20234.56
2023-01-02T03:14:52.439Z,20185.78
2023-01-02T03:17:34.501Z,20206.09
2023-01-02T03:20:14.013Z,20195.94
2023-01-02T03:22:50.614Z,20238.63
2023-01-02T03:25:22.723Z,20204.06
2023-01-02T03:27:53.823Z,20238.63
2023-01-02T03:30:23.670Z,20244.72
2023-01-02T03:32:57.772Z,20254.88
2023-01-02T03:35:33.884Z,20212.19
2023-01-02T03:38:08.550Z,20212.19
2023-01-02T03:40:45.732Z,20177.66
2023-01-02T03:43:19.115Z,20191.88
2023-01-02T03:45:55.917Z,20214.22
2023-01-02T03:48:35.395Z,20218.31
2023-01-02T03:51:05.482Z,20191.88
2023-01-02T03:53:36.845Z,20216.25
2023-01-02T03:56:18.675Z,20216.25
2023-01-02T03:58:55.764Z,20232.53
2023-01-02T04:01:35.636Z,20173.59
2023-01-02T04:04:15.526Z,20171.56
2023-01-02T04:06:55.943Z,20197.97
2023-01-02T04:09:29.805Z,20200.00
2023-01-02T04:12:05.313Z,20165.44
2023-01-02T04:14:40.069Z,20181.72
2023-01-02T04:17:11.476Z,20159.34
2023-01-02T04:19:44.843Z,20155.28
2023-01-02T04:22:22.452Z,20165.44
2023-01-02T04:24:58.399Z,20153.25
2023-01-02T04:27:32.834Z,20189.84
2023-01-02T04:30:01.148Z,20169.53
2023-01-02T04:32:35.596Z,20179.69
2023-01-02T04:35:09.475Z,20132.94
2023-01-02T04:37:42.838Z,20175.63
2023-01-02T04:40:18.773Z,20132.94
2023-01-02T04:42:46.935Z,20165.44
2023-01-02T04:45:15.458Z,20120.75
2023-01-02T04:47:43.576Z,20120.75
2023-01-02T04:50:12.549Z,20159.34
2023-01-02T04:52:42.227Z,20112.59
2023-01-02T04:55:11.647Z,20118.69
2023-01-02T04:57:40.021Z,20159.34
2023-01-02T05:00:10.461Z,20110.56
2023-01-02T05:02:40.654Z,20191.88
2023-01-02T05:05:10.452Z,20116.66
2023-01-02T05:07:40.750Z,20179.69
2023-01-02T05:10:09.859Z,20149.19
2023-01-02T05:12:39.302Z,20084.16
2023-01-02T05:15:11.111Z,20122.78
2023-01-02T05:17:41.892Z,20126.84
2023-01-02T05:20:13.831Z,20169.53
2023-01-02T05:23:02.144Z,20137.00
2023-01-02T05:25:34.341Z,20153.25
2023-01-02T05:28:04.236Z,20137.00
2023-01-02T05:30:32.489Z,20183.75
2023-01-02T05:33:00.639Z,20159.34
2023-01-02T05:35:32.861Z,20185.78
2023-01-02T05:38:03.129Z,20159.34
2023-01-02T05:40:31.259Z,20143.09
2023-01-02T05:43:00.118Z,20134.97
2023-01-02T05:45:29.150Z,20153.25
2023-01-02T05:47:57.347Z,20183.75
2023-01-02T05:50:25.524Z,20191.88
2023-01-02T05:52:53.627Z,20265.03
2023-01-02T05:55:24.221Z,20179.69
2023-01-02T05:57:58.527Z,20181.72
2023-01-02T06:00:26.695Z,20216.25
2023-01-02T06:02:54.942Z,20234.56
2023-01-02T06:05:23.105Z,20236.59
2023-01-02T06:07:51.311Z,20212.19
2023-01-02T06:10:19.479Z,20208.13
2023-01-02T06:12:48.939Z,20212.19
2023-01-02T06:15:17.213Z,20226.44
2023-01-02T06:17:45.364Z,20187.81
2023-01-02T06:20:13.475Z,20200.00
2023-01-02T06:22:41.619Z,20204.06
2023-01-02T06:25:10.445Z,20183.75
2023-01-02T06:27:38.632Z,20208.13
2023-01-02T06:30:10.641Z,20242.69
2023-01-02T06:32:38.787Z,20187.81
2023-01-02T06:35:08.022Z,20197.97
2023-01-02T06:37:36.209Z,20200.00
2023-01-02T06:40:04.930Z,20197.97
2023-01-02T06:42:33.277Z,20195.94
2023-01-02T06:45:01.466Z,20236.59
2023-01-02T06:47:30.971Z,20206.09
2023-01-02T06:49:59.083Z,20238.63
2023-01-02T06:52:29.642Z,20185.78
2023-01-02T06:54:57.743Z,20173.59
2023-01-02T06:57:25.910Z,20189.84
2023-01-02T06:59:54.011Z,20149.19
2023-01-02T07:02:22.262Z,20206.09
2023-01-02T07:04:51.889Z,20187.81
2023-01-02T07:07:19.970Z,20183.75
2023-01-02T07:09:48.058Z,20185.78
2023-01-02T07:12:16.159Z,20187.81
2023-01-02T07:14:44.328Z,20208.13
2023-01-02T07:17:12.469Z,20214.22
2023-01-02T07:19:40.634Z,20206.09
2023-01-02T07:22:10.108Z,20171.56
2023-01-02T07:24:38.911Z,20169.53
2023-01-02T07:27:07.021Z,20167.47
2023-01-02T07:29:35.110Z,20195.94
2023-01-02T07:32:03.276Z,20185.78
2023-01-02T07:34:31.391Z,20191.88
2023-01-02T07:36:59.463Z,20151.22
2023-01-02T07:39:28.939Z,20200.00
2023-01-02T07:41:57.056Z,20159.34
2023-01-02T07:44:25.241Z,20212.19
2023-01-02T07:46:53.330Z,20159.34
2023-01-02T07:49:21.516Z,20161.38
2023-01-02T07:51:49.665Z,20128.88
2023-01-02T07:54:17.801Z,20210.16
2023-01-02T07:56:47.248Z,20216.25
2023-01-02T07:59:15.390Z,20177.66
2023-01-02T08:01:43.610Z,20169.53
2023-01-02T08:04:11.958Z,20167.47
2023-01-02T08:06:41.682Z,20145.13
2023-01-02T08:09:10.071Z,20163.41
2023-01-02T08:11:38.418Z,20187.81
2023-01-02T08:14:08.109Z,20159.34
2023-01-02T08:16:36.275Z,20220.34
2023-01-02T08:19:04.447Z,20167.47
2023-01-02T08:21:32.606Z,20226.44
2023-01-02T08:24:00.703Z,20161.38
2023-01-02T08:26:28.870Z,20187.81
2023-01-02T08:28:57.013Z,20161.38
2023-01-02T08:31:26.566Z,20179.69
2023-01-02T08:33:54.763Z,20189.84
2023-01-02T08:36:22.872Z,20185.78
2023-01-02T08:38:51.004Z,20147.16
2023-01-02T08:41:32.907Z,20147.16
2023-01-02T08:44:01.892Z,20153.25
2023-01-02T08:46:37.052Z,20193.91
2023-01-02T08:49:10.365Z,20191.88
2023-01-02T08:51:38.524Z,20226.44
2023-01-02T08:54:06.758Z,20230.50
2023-01-02T08:56:35.916Z,20208.13
2023-01-02T08:59:07.014Z,20187.81
2023-01-02T09:01:37.914Z,20200.00
2023-01-02T09:04:12.539Z,20222.38
2023-01-02T09:06:42.935Z,20220.34
2023-01-02T09:09:15.745Z,20204.06
2023-01-02T09:11:49.006Z,20236.59
2023-01-02T09:14:18.441Z,20202.03
2023-01-02T09:16:48.717Z,20234.56
2023-01-02T09:19:16.859Z,20210.16
2023-01-02T09:21:45.056Z,20271.16
2023-01-02T09:24:13.645Z,20240.66
2023-01-02T09:26:42.688Z,20248.78
2023-01-02T09:29:12.654Z,20244.72
2023-01-02T09:31:42.145Z,20244.72
2023-01-02T09:34:11.808Z,20218.31
2023-01-02T09:36:40.228Z,20234.56
2023-01-02T09:39:08.344Z,20256.91
2023-01-02T09:41:40.573Z,20311.78
2023-01-02T09:44:18.719Z,20248.78
2023-01-02T09:46:55.448Z,20250.81
2023-01-02T09:49:30.234Z,20260.97
2023-01-02T09:51:59.416Z,20277.25
2023-01-02T09:54:30.562Z,20281.31
2023-01-02T09:57:40.317Z,20376.84
2023-01-02T10:00:17.219Z,20344.31
2023-01-02T10:03:07.411Z,20313.84
2023-01-02T10:06:12.262Z,20289.44
2023-01-02T10:08:57.059Z,20326.03
2023-01-02T10:11:41.992Z,20299.59
2023-01-02T10:14:27.997Z,20301.63
2023-01-02T10:17:04.452Z,20301.63
2023-01-02T10:19:43.322Z,20344.31
2023-01-02T10:22:19.442Z,20311.78
2023-01-02T10:24:55.750Z,20326.03
2023-01-02T10:27:33.898Z,20360.59
2023-01-02T10:30:18.574Z,20380.91
2023-01-02T10:32:56.217Z,20374.81
2023-01-02T10:35:36.363Z,20354.47
2023-01-02T10:38:06.215Z,20391.06
2023-01-02T10:40:35.075Z,20411.41
2023-01-02T10:43:03.484Z,20427.66
2023-01-02T10:45:31.665Z,20370.75
2023-01-02T10:47:59.787Z,20411.41
2023-01-02T10:50:33.512Z,20389.03
2023-01-02T10:53:20.158Z,20374.81
2023-01-02T10:55:49.066Z,20413.44
2023-01-02T10:58:23.842Z,20423.59
2023-01-02T11:01:04.047Z,20431.72
2023-01-02T11:03:32.831Z,20476.44
2023-01-02T11:06:26.973Z,20429.69
2023-01-02T11:09:00.577Z,20427.66
2023-01-02T11:11:31.410Z,20454.09
2023-01-02T11:14:11.348Z,20525.22
2023-01-02T11:16:41.822Z,20523.19
2023-01-02T11:19:27.423Z,20608.56
2023-01-02T11:21:58.843Z,20661.44
2023-01-02T11:24:28.629Z,20630.94
2023-01-02T11:26:58.454Z,20596.38
2023-01-02T11:29:33.433Z,20616.69
2023-01-02T11:32:04.123Z,20620.78
2023-01-02T11:34:37.364Z,20635.00
2023-01-02T11:37:16.908Z,20571.97
2023-01-02T11:40:01.100Z,20620.78
2023-01-02T11:42:56.643Z,20541.50
2023-01-02T11:45:25.013Z,20555.72
2023-01-02T11:48:00.501Z,20555.72
2023-01-02T11:50:31.330Z,20594.34
2023-01-02T11:53:03.253Z,20582.16
2023-01-02T11:55:46.073Z,20580.13
2023-01-02T11:58:26.798Z,20622.81
2023-01-02T12:01:02.643Z,20604.50
2023-01-02T12:03:33.058Z,20618.72
2023-01-02T12:06:15.766Z,20584.19
2023-01-02T12:09:02.403Z,20657.34
2023-01-02T12:11:49.759Z,20608.56
2023-01-02T12:14:21.678Z,20637.03
2023-01-02T12:16:59.953Z,20667.53
2023-01-02T12:20:05.919Z,20677.69
2023-01-02T12:23:06.494Z,20659.38
2023-01-02T12:25:53.688Z,20691.91
2023-01-02T12:29:10.958Z,20675.66
2023-01-02T12:32:08.922Z,20665.50
2023-01-02T12:35:03.726Z,20720.38
2023-01-02T12:37:45.169Z,20700.03
2023-01-02T12:40:44.779Z,20628.91
2023-01-02T12:43:43.334Z,20592.31
2023-01-02T12:46:27.244Z,20616.69
2023-01-02T12:49:22.273Z,20624.84
2023-01-02T12:52:04.670Z,20578.09
2023-01-02T12:55:01.982Z,20580.13
2023-01-02T12:57:41.545Z,20561.81
2023-01-02T13:00:34.209Z,20569.94
2023-01-02T13:03:31.312Z,20571.97
2023-01-02T13:06:43.618Z,20521.16
2023-01-02T13:09:06.998Z,20588.25
2023-01-02T13:11:44.186Z,20551.66
2023-01-02T13:14:19.395Z,20515.06
2023-01-02T13:16:59.318Z,20513.03
2023-01-02T13:19:38.995Z,20539.47
2023-01-02T13:22:22.393Z,20561.81
2023-01-02T13:24:52.341Z,20511.00
2023-01-02T13:27:20.723Z,20525.22
2023-01-02T13:29:48.893Z,20576.03
2023-01-02T13:32:29.410Z,20584.19
2023-01-02T13:35:02.982Z,20541.50
2023-01-02T13:37:32.149Z,20608.56
2023-01-02T13:40:03.539Z,20578.09
2023-01-02T13:42:53.908Z,20511.00
2023-01-02T13:45:28.788Z,20561.81
2023-01-02T13:48:02.683Z,20571.97
2023-01-02T13:50:35.272Z,20565.88
2023-01-02T13:53:18.188Z,20539.47
2023-01-02T13:56:05.637Z,20531.31
2023-01-02T13:58:49.707Z,20553.69
2023-01-02T14:02:06.844Z,20508.97
2023-01-02T14:04:41.801Z,20470.34
2023-01-02T14:07:46.115Z,20464.25
2023-01-02T14:10:36.145Z,20498.81
2023-01-02T14:13:22.355Z,20472.38
2023-01-02T14:16:50.024Z,20464.25
2023-01-02T14:19:23.347Z,20504.91
2023-01-02T14:22:16.193Z,20470.34
2023-01-02T14:24:49.186Z,20482.53
2023-01-02T14:27:27.362Z,20484.56
2023-01-02T14:30:00.897Z,20500.84
2023-01-02T14:32:39.536Z,20439.84
2023-01-02T14:35:25.498Z,20435.78
2023-01-02T14:38:06.778Z,20435.78
2023-01-02T14:40:38.754Z,20476.44
2023-01-02T14:43:35.547Z,20462.22
2023-01-02T14:46:16.304Z,20441.88
2023-01-02T14:48:55.959Z,20458.16
2023-01-02T14:51:33.182Z,20405.31
2023-01-02T14:54:12.504Z,20407.34
2023-01-02T14:56:44.125Z,20407.34
2023-01-02T14:59:20.760Z,20387.00
2023-01-02T15:01:53.532Z,20352.44
2023-01-02T15:04:38.618Z,20391.06
2023-01-02T15:07:25.284Z,20342.28
2023-01-02T15:10:00.428Z,20346.34
2023-01-02T15:12:49.181Z,20342.28
2023-01-02T15:15:20.058Z,20356.50
2023-01-02T15:17:50.915Z,20358.56
2023-01-02T15:20:23.930Z,20362.63
2023-01-02T15:22:54.598Z,20378.88
2023-01-02T15:25:36.299Z,20370.75
2023-01-02T15:28:05.274Z,20348.38
2023-01-02T15:30:39.401Z,20338.22
2023-01-02T15:33:25.624Z,20378.88
2023-01-02T15:35:59.822Z,20346.34
2023-01-02T15:38:28.207Z,20319.94
2023-01-02T15:40:58.628Z,20336.19
2023-01-02T15:43:49.945Z,20319.94
2023-01-02T15:46:18.767Z,20289.44
2023-01-02T15:48:48.977Z,20283.34
2023-01-02T15:51:20.494Z,20346.34
2023-01-02T15:54:14.134Z,20301.63
2023-01-02T15:56:44.152Z,20279.28
2023-01-02T15:59:28.155Z,20256.91
2023-01-02T16:01:57.285Z,20238.63
2023-01-02T16:04:28.355Z,20269.13
2023-01-02T16:06:58.990Z,20254.88
2023-01-02T16:09:31.343Z,20303.66
2023-01-02T16:12:04.140Z,20299.59
2023-01-02T16:14:42.558Z,20244.72
2023-01-02T16:17:23.842Z,20234.56
2023-01-02T16:19:58.935Z,20236.59
2023-01-02T16:22:30.875Z,20263.00
2023-01-02T16:25:07.504Z,20220.34
2023-01-02T16:27:47.791Z,20210.16
2023-01-02T16:30:28.499Z,20216.25
2023-01-02T16:32:57.677Z,20224.41
2023-01-02T16:35:28.482Z,20254.88
2023-01-02T16:37:59.158Z,20175.63
2023-01-02T16:41:03.091Z,20179.69
2023-01-02T16:43:42.809Z,20236.59
2023-01-02T16:46:16.077Z,20222.38
2023-01-02T16:48:45.488Z,20234.56
2023-01-02T16:51:16.610Z,20210.16
2023-01-02T16:53:45.853Z,20181.72
2023-01-02T16:56:15.666Z,20191.88
2023-01-02T16:58:45.110Z,20208.13
2023-01-02T17:01:16.186Z,20187.81
2023-01-02T17:03:45.271Z,20220.34
2023-01-02T17:06:18.195Z,20212.19
2023-01-02T17:08:46.260Z,20187.81
2023-01-02T17:11:17.375Z,20126.84
2023-01-02T17:13:47.012Z,20183.75
2023-01-02T17:16:15.675Z,20145.13
2023-01-02T17:18:44.000Z,20134.97
2023-01-02T17:21:12.943Z,20098.38
2023-01-02T17:23:41.051Z,20130.91
2023-01-02T17:26:09.508Z,20124.81
2023-01-02T17:28:37.695Z,20082.13
2023-01-02T17:31:07.370Z,20100.41
2023-01-02T17:33:35.471Z,20061.78
2023-01-02T17:36:03.710Z,20027.25
2023-01-02T17:38:31.774Z,19986.59
2023-01-02T17:41:01.185Z,19954.06
2023-01-02T17:43:29.246Z,19978.47
2023-01-02T17:45:57.405Z,19907.31
2023-01-02T17:48:26.986Z,19901.22
2023-01-02T17:50:55.349Z,19858.56
2023-01-02T17:53:23.451Z,19872.78
2023-01-02T17:56:21.010Z,19817.91
2023-01-02T17:58:41.634Z,19836.19
2023-01-02T18:01:16.409Z,19801.66
2023-01-02T18:03:46.877Z,19807.75
2023-01-02T18:06:15.674Z,19767.09
2023-01-02T18:08:44.105Z,19787.41
2023-01-02T18:11:15.615Z,19736.59
2023-01-02T18:13:47.644Z,19732.53
2023-01-02T18:16:18.832Z,19758.97
2023-01-02T18:18:50.402Z,19785.38
2023-01-02T18:21:22.783Z,19748.81
2023-01-02T18:23:59.882Z,19726.44
2023-01-02T18:26:28.651Z,19773.19
2023-01-02T18:29:07.519Z,19738.66
2023-01-02T18:31:43.260Z,19758.97
2023-01-02T18:37:21.504Z,19769.13
2023-01-02T18:39:50.875Z,19720.34
2023-01-02T18:42:24.225Z,19761.00
2023-01-02T18:44:54.049Z,19734.56
2023-01-02T18:47:28.875Z,19738.66
2023-01-02T18:50:23.792Z,19752.88
2023-01-02T18:52:53.685Z,19738.66
2023-01-02T18:55:28.050Z,19700.03
2023-01-02T18:58:00.595Z,19665.47
2023-01-02T19:00:31.406Z,19659.38
2023-01-02T19:03:03.048Z,19691.91
2023-01-02T19:05:36.036Z,19675.63
2023-01-02T19:08:19.613Z,19687.84
2023-01-02T19:10:51.224Z,19645.16
2023-01-02T19:13:23.530Z,19651.25
2023-01-02T19:15:57.008Z,19651.25
2023-01-02T19:18:35.364Z,19630.94
2023-01-02T19:21:19.460Z,19632.97
2023-01-02T19:23:58.252Z,19600.44
2023-01-02T19:26:34.065Z,19578.09
2023-01-02T19:29:14.966Z,19596.38
2023-01-02T19:31:45.658Z,19622.81
2023-01-02T19:34:43.275Z,19578.09
2023-01-02T19:37:29.707Z,19563.88
2023-01-02T19:40:04.355Z,19600.44
2023-01-02T19:42:33.282Z,19616.72
2023-01-02T19:45:10.008Z,19557.78
2023-01-02T19:47:40.206Z,19549.63
2023-01-02T19:50:11.406Z,19535.41
2023-01-02T19:52:41.479Z,19504.94
2023-01-02T19:55:12.157Z,19535.41
2023-01-02T19:57:40.765Z,19533.38
2023-01-02T20:00:13.331Z,19565.91
2023-01-02T20:02:42.463Z,19525.25
2023-01-02T20:05:14.829Z,19492.75
2023-01-02T20:07:47.291Z,19496.81
2023-01-02T20:10:15.747Z,19525.25
2023-01-02T20:12:44.702Z,19521.19
2023-01-02T20:15:17.215Z,19486.66
2023-01-02T20:17:46.214Z,19486.66
2023-01-02T20:20:17.144Z,19494.78
2023-01-02T20:22:47.758Z,19500.88
2023-01-02T20:25:18.649Z,19496.81
2023-01-02T20:27:46.844Z,19504.94
2023-01-02T20:30:18.837Z,19490.72
2023-01-02T20:32:51.908Z,19454.13
2023-01-02T20:35:20.030Z,19474.44
2023-01-02T20:37:49.467Z,19466.31
2023-01-02T20:40:17.835Z,19456.16
2023-01-02T20:42:45.853Z,19450.06
2023-01-02T20:45:14.006Z,19460.22
2023-01-02T20:47:42.097Z,19464.28
2023-01-02T20:50:10.992Z,19464.28
2023-01-02T20:52:39.259Z,19470.38
2023-01-02T20:55:10.511Z,19476.47
2023-01-02T20:57:38.578Z,19464.28
2023-01-02T21:00:10.232Z,19476.47
2023-01-02T21:02:38.541Z,19492.75
2023-01-02T21:05:07.593Z,19452.09
2023-01-02T21:07:35.636Z,19460.22
2023-01-02T21:10:03.760Z,19468.34
2023-01-02T21:12:50.959Z,19435.84
2023-01-02T21:15:33.107Z,19433.81
2023-01-02T21:18:01.910Z,19464.28
2023-01-02T21:20:30.014Z,19496.81
2023-01-02T21:22:58.136Z,19480.53
2023-01-02T21:25:26.430Z,19450.06
2023-01-02T21:27:56.102Z,19452.09
2023-01-02T21:30:24.344Z,19439.91
2023-01-02T21:32:52.438Z,19427.72
2023-01-02T21:35:20.613Z,19423.66
2023-01-02T21:37:48.728Z,19466.31
2023-01-02T21:40:17.016Z,19441.94
2023-01-02T21:42:45.290Z,19419.59
2023-01-02T21:45:14.853Z,19441.94
2023-01-02T21:47:43.034Z,19419.59
2023-01-02T21:50:11.888Z,19399.25
2023-01-02T21:52:40.457Z,19419.59
2023-01-02T21:55:09.550Z,19435.84
2023-01-02T21:58:11.837Z,19407.38
2023-01-02T22:00:30.462Z,19423.66
2023-01-02T22:02:58.710Z,19411.44
2023-01-02T22:05:26.936Z,19395.19
2023-01-02T22:07:55.037Z,19409.41
2023-01-02T22:10:23.207Z,19378.94
2023-01-02T22:12:51.285Z,19421.63
2023-01-02T22:15:19.648Z,19397.22
2023-01-02T22:17:49.605Z,19368.78
2023-01-02T22:20:17.877Z,19378.94
2023-01-02T22:22:46.031Z,19336.25
2023-01-02T22:25:14.248Z,19364.72
2023-01-02T22:27:43.405Z,19378.94
2023-01-02T22:30:25.763Z,19383.00
2023-01-02T22:33:00.910Z,19328.13
2023-01-02T22:35:29.309Z,19350.50
2023-01-02T22:37:59.316Z,19360.66
2023-01-02T22:40:28.666Z,19322.03
2023-01-02T22:43:05.891Z,19334.22
2023-01-02T22:45:42.458Z,19328.13
2023-01-02T22:48:22.331Z,19328.13
2023-01-02T22:50:53.637Z,19362.69
2023-01-02T22:53:26.788Z,19346.44
2023-01-02T22:55:55.339Z,19305.78
2023-01-02T22:58:25.068Z,19338.28
2023-01-02T23:01:01.215Z,19305.78
2023-01-02T23:03:38.703Z,19289.53
2023-01-02T23:06:07.217Z,19309.84
2023-01-02T23:08:35.441Z,19336.25
2023-01-02T23:11:04.566Z,19315.94
2023-01-02T23:13:34.801Z,19305.78
2023-01-02T23:16:21.784Z,19277.34
2023-01-02T23:19:09.408Z,19261.06
2023-01-02T23:21:40.132Z,19297.66
2023-01-02T23:24:09.671Z,19254.97
2023-01-02T23:26:43.397Z,19267.16
2023-01-02T23:29:12.903Z,19248.88
2023-01-02T23:31:44.497Z,19246.84
2023-01-02T23:34:17.503Z,19257.00
2023-01-02T23:36:46.079Z,19254.97
2023-01-02T23:39:17.991Z,19230.59
2023-01-02T23:41:47.072Z,19273.28
2023-01-02T23:44:16.308Z,19248.88
2023-01-02T23:46:45.137Z,19261.06
2023-01-02T23:49:16.352Z,19252.94
2023-01-02T23:51:45.667Z,19265.13
2023-01-02T23:54:16.772Z,19261.06
2023-01-02T23:56:48.944Z,19238.72
2023-01-02T23:59:20.206Z,19259.03
